createdAt,value
2022-11-02T00:00:39.948Z,73.57
2022-11-02T00:03:07.075Z,73.89
2022-11-02T00:05:34.091Z,73.84
2022-11-02T00:08:00.762Z,73.80
2022-11-02T00:10:27.412Z,73.71
2022-11-02T00:12:54.106Z,74.07
2022-11-02T00:15:20.924Z,73.69
2022-11-02T00:17:49.014Z,73.89
2022-11-02T00:20:17.250Z,73.75
2022-11-02T00:22:44.861Z,72.96
2022-11-02T00:25:13.122Z,72.46
2022-11-02T00:27:40.513Z,72.06
2022-11-02T00:30:07.513Z,71.40
2022-11-02T00:32:34.239Z,70.76
2022-11-02T00:35:00.934Z,70.56
2022-11-02T00:37:27.700Z,70.56
2022-11-02T00:39:54.423Z,70.94
2022-11-02T00:42:21.202Z,71.74
2022-11-02T00:44:47.893Z,70.46
2022-11-02T00:47:14.622Z,69.59
2022-11-02T00:49:41.311Z,69.04
2022-11-02T00:52:08.053Z,68.57
2022-11-02T00:54:34.692Z,68.29
2022-11-02T00:59:33.052Z,68.07
2022-11-02T01:01:59.813Z,68.05
2022-11-02T01:04:26.956Z,69.03
2022-11-02T01:06:53.623Z,69.15
2022-11-02T01:09:21.902Z,69.62
2022-11-02T01:11:48.565Z,69.65
2022-11-02T01:14:15.221Z,68.91
2022-11-02T01:16:42.202Z,69.45
2022-11-02T01:19:08.951Z,69.55
2022-11-02T01:21:35.733Z,69.65
2022-11-02T01:24:02.432Z,70.12
2022-11-02T01:26:29.131Z,69.83
2022-11-02T01:28:55.851Z,69.38
2022-11-02T01:31:22.602Z,70.30
2022-11-02T01:33:49.672Z,70.24
2022-11-02T01:36:17.450Z,70.21
2022-11-02T01:38:44.198Z,70.75
2022-11-02T01:41:12.224Z,70.36
2022-11-02T01:43:41.563Z,70.15
2022-11-02T01:46:14.232Z,71.29
2022-11-02T01:48:40.881Z,73.49
2022-11-02T01:51:10.692Z,73.48
2022-11-02T01:53:39.885Z,74.90
2022-11-02T01:56:06.993Z,74.26
2022-11-02T01:58:35.309Z,73.58
2022-11-02T02:01:02.394Z,73.30
2022-11-02T02:03:30.672Z,73.44
2022-11-02T02:06:01.091Z,73.18
2022-11-02T02:08:28.313Z,73.03
2022-11-02T02:10:58.421Z,72.99
2022-11-02T02:13:26.861Z,73.59
2022-11-02T02:15:59.332Z,74.23
2022-11-02T02:18:46.404Z,73.27
2022-11-02T02:21:16.203Z,74.16
2022-11-02T02:23:51.994Z,73.55
2022-11-02T02:26:21.524Z,73.82
2022-11-02T02:29:00.803Z,72.87
2022-11-02T02:31:30.582Z,73.05
2022-11-02T02:34:23.682Z,73.28
2022-11-02T02:36:58.174Z,74.30
2022-11-02T02:39:24.829Z,75.35
2022-11-02T02:41:58.665Z,75.96
2022-11-02T02:44:29.183Z,74.17
2022-11-02T02:47:10.532Z,75.07
2022-11-02T02:49:40.873Z,75.20
2022-11-02T02:52:08.492Z,74.32
2022-11-02T02:54:40.603Z,77.01
2022-11-02T02:57:09.545Z,75.98
2022-11-02T02:59:45.982Z,77.33
2022-11-02T03:02:23.470Z,76.27
2022-11-02T03:04:50.223Z,76.41
2022-11-02T03:07:31.126Z,76.08
2022-11-02T03:10:06.773Z,78.14
2022-11-02T03:12:46.344Z,77.18
2022-11-02T03:15:29.132Z,77.30
2022-11-02T03:18:08.165Z,81.21
2022-11-02T03:20:43.652Z,80.33
2022-11-02T03:23:10.412Z,77.81
2022-11-02T03:25:47.783Z,76.29
2022-11-02T03:28:17.873Z,76.71
2022-11-02T03:30:51.722Z,75.78
2022-11-02T03:33:39.053Z,76.23
2022-11-02T03:36:15.723Z,76.12
2022-11-02T03:38:45.742Z,76.35
2022-11-02T03:41:13.773Z,75.80
2022-11-02T03:43:41.511Z,76.22
2022-11-02T03:46:10.229Z,75.60
2022-11-02T03:48:40.964Z,75.17
2022-11-02T03:51:11.752Z,75.45
2022-11-02T03:53:44.516Z,75.44
2022-11-02T03:56:15.952Z,74.69
2022-11-02T03:58:42.713Z,74.60
2022-11-02T04:01:10.072Z,74.50
2022-11-02T04:03:42.114Z,73.84
2022-11-02T04:06:08.825Z,74.16
2022-11-02T04:08:46.364Z,73.99
2022-11-02T04:11:32.426Z,75.90
2022-11-02T04:14:17.583Z,73.94
2022-11-02T04:16:44.417Z,74.08
2022-11-02T04:19:29.665Z,75.20
2022-11-02T04:22:15.692Z,74.78
2022-11-02T04:25:00.814Z,74.24
2022-11-02T04:27:27.503Z,75.40
2022-11-02T04:29:54.181Z,75.46
2022-11-02T04:32:39.699Z,75.29
2022-11-02T04:35:06.895Z,75.27
2022-11-02T04:37:56.533Z,75.50
2022-11-02T04:40:23.194Z,75.18
2022-11-02T04:42:49.873Z,76.12
2022-11-02T04:45:16.661Z,76.75
2022-11-02T04:47:43.383Z,75.17
2022-11-02T04:50:10.422Z,75.53
2022-11-02T04:52:37.313Z,75.72
2022-11-02T04:55:04.122Z,76.73
2022-11-02T04:57:31.008Z,78.96
2022-11-02T04:59:57.719Z,80.34
2022-11-02T05:02:24.593Z,77.83
2022-11-02T05:04:51.395Z,77.42
2022-11-02T05:07:18.152Z,76.93
2022-11-02T05:09:44.870Z,76.62
2022-11-02T05:12:11.559Z,76.11
2022-11-02T05:14:38.222Z,75.43
2022-11-02T05:17:04.952Z,75.49
2022-11-02T05:19:31.628Z,75.41
2022-11-02T05:21:58.284Z,75.37
2022-11-02T05:24:25.043Z,75.44
2022-11-02T05:26:54.169Z,74.44
2022-11-02T05:29:20.972Z,74.22
2022-11-02T05:31:47.750Z,74.35
2022-11-02T05:34:14.433Z,74.09
2022-11-02T05:36:41.193Z,73.41
2022-11-02T05:39:07.893Z,73.15
2022-11-02T05:41:34.580Z,73.16
2022-11-02T05:44:01.265Z,73.78
2022-11-02T05:46:27.995Z,73.61
2022-11-02T05:48:54.762Z,73.64
2022-11-02T05:51:21.483Z,74.68
2022-11-02T05:53:48.246Z,75.41
2022-11-02T05:56:15.915Z,74.91
2022-11-02T05:58:44.161Z,74.69
2022-11-02T06:01:11.345Z,75.44
2022-11-02T06:03:38.232Z,75.18
2022-11-02T06:06:06.272Z,75.89
2022-11-02T06:08:33.977Z,75.42
2022-11-02T06:11:08.739Z,75.65
2022-11-02T06:13:35.771Z,76.12
2022-11-02T06:16:03.233Z,75.87
2022-11-02T06:18:31.700Z,77.10
2022-11-02T06:20:59.185Z,76.66
2022-11-02T06:23:26.203Z,76.79
2022-11-02T06:25:53.683Z,76.10
2022-11-02T06:28:47.545Z,75.92
2022-11-02T06:31:17.752Z,76.32
2022-11-02T06:33:46.008Z,76.29
2022-11-02T06:36:13.404Z,76.31
2022-11-02T06:38:43.153Z,76.75
2022-11-02T06:41:10.661Z,76.19
2022-11-02T06:43:43.086Z,76.27
2022-11-02T06:46:10.263Z,76.08
2022-11-02T06:48:37.152Z,75.75
2022-11-02T06:51:05.469Z,76.24
2022-11-02T06:53:34.330Z,77.52
2022-11-02T06:56:01.382Z,77.25
2022-11-02T06:58:30.431Z,76.50
2022-11-02T07:00:58.848Z,75.94
2022-11-02T07:33:23.071Z,73.62
2022-11-02T08:02:17.887Z,70.55
2022-11-02T08:04:46.814Z,70.39
2022-11-02T08:07:31.492Z,71.95
2022-11-02T08:14:38.181Z,73.12
2022-11-02T08:19:44.348Z,69.91
2022-11-02T08:45:11.523Z,67.66
2022-11-02T08:51:35.954Z,69.02
2022-11-02T09:24:55.205Z,60.67
2022-11-02T09:27:55.243Z,58.88
2022-11-02T09:30:46.130Z,58.90
2022-11-02T09:34:03.935Z,58.94
2022-11-02T09:36:39.376Z,61.41
2022-11-02T09:40:17.760Z,60.57
2022-11-02T09:42:33.784Z,59.21
2022-11-02T09:45:16.326Z,58.34
2022-11-02T09:48:17.910Z,60.60
2022-11-02T09:50:51.399Z,58.82
2022-11-02T09:54:03.315Z,57.90
2022-11-02T09:56:34.752Z,53.36
2022-11-02T10:03:03.659Z,51.49
2022-11-02T10:12:25.293Z,53.18
2022-11-02T10:26:19.493Z,50.55
2022-11-02T10:38:29.195Z,51.15
2022-11-02T11:37:40.931Z,51.13
2022-11-02T11:43:38.868Z,50.60
2022-11-02T11:46:08.236Z,50.31
2022-11-02T11:48:35.141Z,50.15
2022-11-02T11:54:06.452Z,50.66
2022-11-02T11:56:36.887Z,50.04
2022-11-02T11:59:19.242Z,51.00
2022-11-02T12:01:46.737Z,51.22
2022-11-02T12:04:13.803Z,51.23
2022-11-02T12:07:20.386Z,51.11
2022-11-02T12:10:01.578Z,50.82
2022-11-02T12:12:47.142Z,51.01
2022-11-02T12:15:26.312Z,51.36
2022-11-02T12:18:14.668Z,52.47
2022-11-02T12:21:12.789Z,51.60
2022-11-02T12:24:05.140Z,52.19
2022-11-02T12:26:47.855Z,51.42
2022-11-02T12:29:42.159Z,51.83
2022-11-02T12:32:23.525Z,52.35
2022-11-02T12:35:30.994Z,52.36
2022-11-02T12:38:31.329Z,52.53
2022-11-02T12:41:02.517Z,51.93
2022-11-02T12:43:32.443Z,51.81
2022-11-02T12:46:03.584Z,51.86
2022-11-02T12:49:00.976Z,51.75
2022-11-02T12:51:42.689Z,52.33
2022-11-02T12:54:13.192Z,51.74
2022-11-02T12:56:52.394Z,51.55
2022-11-02T12:59:31.957Z,52.16
2022-11-02T13:04:53.847Z,52.01
2022-11-02T13:07:26.496Z,52.15
2022-11-02T13:09:58.516Z,52.85
2022-11-02T13:12:28.136Z,52.39
2022-11-02T13:14:57.227Z,52.51
2022-11-02T13:17:28.083Z,52.70
2022-11-02T13:20:04.706Z,52.42
2022-11-02T13:22:51.825Z,52.07
2022-11-02T13:25:47.260Z,52.32
2022-11-02T13:28:23.524Z,51.96
2022-11-02T13:30:51.239Z,52.82
2022-11-02T13:33:25.394Z,52.97
2022-11-02T13:35:55.265Z,53.61
2022-11-02T13:38:26.532Z,53.06
2022-11-02T13:41:12.253Z,53.40
2022-11-02T13:43:59.005Z,53.12
2022-11-02T13:46:33.094Z,53.53
2022-11-02T13:49:12.978Z,53.41
2022-11-02T13:51:47.152Z,53.00
2022-11-02T13:54:42.245Z,53.32
2022-11-02T13:57:22.603Z,53.62
2022-11-02T13:59:52.965Z,53.56
2022-11-02T14:02:24.795Z,53.93
2022-11-02T14:04:51.945Z,53.76
2022-11-02T14:07:30.747Z,53.93
2022-11-02T14:10:34.354Z,54.09
2022-11-02T14:13:29.144Z,53.73
2022-11-02T14:16:09.215Z,53.56
2022-11-02T14:18:45.948Z,53.54
2022-11-02T14:21:40.735Z,54.39
2022-11-02T14:24:27.546Z,54.45
2022-11-02T14:26:59.654Z,54.27
2022-11-02T14:29:54.433Z,54.67
2022-11-02T14:32:24.305Z,54.72
2022-11-02T14:35:07.663Z,54.81
2022-11-02T14:37:41.273Z,55.03
2022-11-02T14:40:19.748Z,55.33
2022-11-02T14:42:49.642Z,55.18
2022-11-02T14:45:24.610Z,55.23
2022-11-02T14:48:25.072Z,55.29
2022-11-02T14:51:40.992Z,55.26
2022-11-02T14:54:17.488Z,55.64
2022-11-02T14:56:54.900Z,55.34
2022-11-02T14:59:29.701Z,55.39
2022-11-02T15:02:01.018Z,55.44
2022-11-02T15:04:35.411Z,55.40
2022-11-02T15:07:21.679Z,55.59
2022-11-02T15:10:02.367Z,55.38
2022-11-02T15:12:29.234Z,56.18
2022-11-02T15:14:58.709Z,56.38
2022-11-02T15:17:45.469Z,57.20
2022-11-02T15:20:15.424Z,57.87
2022-11-02T15:22:44.744Z,58.35
2022-11-02T15:25:14.563Z,58.25
2022-11-02T15:27:43.853Z,58.46
2022-11-02T15:30:28.541Z,58.63
2022-11-02T15:33:06.622Z,58.32
2022-11-02T15:35:38.114Z,58.75
2022-11-02T15:38:27.886Z,58.83
2022-11-02T15:41:15.982Z,58.38
2022-11-02T15:43:52.381Z,58.71
2022-11-02T15:46:19.333Z,58.48
2022-11-02T15:48:58.938Z,58.66
2022-11-02T15:51:26.370Z,58.74
2022-11-02T15:53:53.052Z,59.39
2022-11-02T15:56:35.232Z,61.54
2022-11-02T15:59:14.124Z,61.02
2022-11-02T16:01:41.130Z,61.67
2022-11-02T16:04:08.443Z,63.78
2022-11-02T16:06:37.263Z,63.02
2022-11-02T16:09:23.885Z,63.88
2022-11-02T16:12:09.442Z,63.97
2022-11-02T16:14:36.138Z,64.83
2022-11-02T16:17:02.855Z,64.07
2022-11-02T16:19:29.663Z,63.90
2022-11-02T16:22:01.083Z,63.79
2022-11-02T16:24:29.742Z,64.52
2022-11-02T16:26:56.744Z,64.61
2022-11-02T16:29:29.562Z,67.17
2022-11-02T16:31:56.742Z,65.80
2022-11-02T16:34:25.931Z,65.17
2022-11-02T16:36:52.773Z,65.01
2022-11-02T16:39:23.295Z,64.55
2022-11-02T16:41:51.310Z,64.53
2022-11-02T16:44:21.505Z,64.45
2022-11-02T16:46:48.313Z,63.73
2022-11-02T16:49:16.753Z,63.49
2022-11-02T16:51:53.738Z,63.52
2022-11-02T16:54:46.574Z,64.26
2022-11-02T16:57:21.793Z,65.93
2022-11-02T16:59:57.752Z,65.24
2022-11-02T17:02:33.783Z,65.72
2022-11-02T17:05:05.836Z,65.86
2022-11-02T17:07:36.087Z,65.25
2022-11-02T17:10:04.336Z,65.29
2022-11-02T17:12:33.895Z,65.18
2022-11-02T17:15:02.360Z,65.90
2022-11-02T17:17:38.315Z,66.30
2022-11-02T17:20:19.475Z,66.48
2022-11-02T17:22:55.934Z,67.04
2022-11-02T17:25:25.403Z,67.95
2022-11-02T17:27:55.650Z,67.11
2022-11-02T17:30:43.243Z,68.49
2022-11-02T17:33:13.242Z,68.81
2022-11-02T17:35:45.923Z,68.81
2022-11-02T17:38:13.892Z,68.43
2022-11-02T17:40:41.263Z,72.27
2022-11-02T17:43:09.046Z,70.54
2022-11-02T17:45:40.233Z,70.00
2022-11-02T17:48:08.982Z,69.67
2022-11-02T17:50:39.592Z,69.38
2022-11-02T17:53:06.808Z,69.55
2022-11-02T17:55:34.624Z,68.96
2022-11-02T17:58:01.395Z,68.53
2022-11-02T18:00:34.052Z,68.62
2022-11-02T18:03:01.241Z,68.82
2022-11-02T18:05:29.367Z,68.73
2022-11-02T18:07:57.080Z,68.58
2022-11-02T18:10:25.712Z,75.77
2022-11-02T18:12:52.543Z,71.96
2022-11-02T18:15:21.184Z,70.04
2022-11-02T18:17:48.031Z,69.47
2022-11-02T18:20:15.323Z,68.64
2022-11-02T18:22:42.178Z,68.43
2022-11-02T18:25:13.682Z,68.66
2022-11-02T18:27:41.112Z,68.64
2022-11-02T18:30:09.951Z,68.27
2022-11-02T18:32:37.222Z,68.04
2022-11-02T18:35:04.796Z,67.57
2022-11-02T18:37:32.779Z,67.69
2022-11-02T18:39:59.638Z,68.11
2022-11-02T18:42:26.439Z,68.40
2022-11-02T18:44:53.223Z,70.33
2022-11-02T18:47:19.921Z,68.21
2022-11-02T18:49:47.074Z,68.50
2022-11-02T18:52:19.823Z,68.46
2022-11-02T18:54:49.512Z,68.23
2022-11-02T18:57:16.205Z,68.11
2022-11-02T18:59:42.901Z,68.03
2022-11-02T19:02:10.626Z,68.16
2022-11-02T19:04:37.609Z,67.92
2022-11-02T19:07:23.697Z,67.71
2022-11-02T19:09:50.451Z,67.50
2022-11-02T19:12:19.412Z,70.14
2022-11-02T19:14:47.223Z,68.65
2022-11-02T19:17:14.682Z,68.30
2022-11-02T19:19:43.403Z,68.25
2022-11-02T19:22:12.392Z,67.71
2022-11-02T19:24:39.291Z,67.68
2022-11-02T19:27:06.049Z,69.15
2022-11-02T19:29:34.192Z,73.07
2022-11-02T19:32:00.993Z,70.32
2022-11-02T19:34:27.771Z,70.78
2022-11-02T19:36:54.641Z,70.63
2022-11-02T19:39:21.812Z,70.77
2022-11-02T19:41:52.167Z,70.12
2022-11-02T19:44:18.963Z,69.57
2022-11-02T19:46:45.663Z,68.70
2022-11-02T19:49:12.418Z,68.21
2022-11-02T19:51:39.200Z,67.97
2022-11-02T19:54:06.353Z,67.25
2022-11-02T19:56:34.445Z,66.25
2022-11-02T19:59:01.392Z,64.62
2022-11-02T20:01:35.429Z,64.23
2022-11-02T20:04:02.532Z,63.48
2022-11-02T20:06:32.612Z,62.46
2022-11-02T20:09:01.940Z,61.94
2022-11-02T20:11:28.945Z,61.65
2022-11-02T20:14:05.722Z,61.04
2022-11-02T20:16:32.501Z,60.56
2022-11-02T20:18:59.761Z,60.22
2022-11-02T20:21:32.318Z,59.89
2022-11-02T20:24:02.785Z,59.78
2022-11-02T20:26:31.460Z,60.27
2022-11-02T20:28:59.213Z,61.10
2022-11-02T20:31:27.026Z,63.07
2022-11-02T20:33:54.205Z,64.68
2022-11-02T20:36:20.991Z,64.43
2022-11-02T20:38:47.834Z,64.03
2022-11-02T20:41:15.871Z,63.91
2022-11-02T20:43:43.562Z,64.06
2022-11-02T20:46:37.420Z,64.30
2022-11-02T20:49:13.937Z,64.37
2022-11-02T20:51:52.653Z,64.80
2022-11-02T20:54:20.094Z,64.72
2022-11-02T20:56:47.710Z,65.19
2022-11-02T20:59:14.721Z,63.70
2022-11-02T21:01:41.937Z,63.55
2022-11-02T21:04:08.889Z,63.68
2022-11-02T21:06:35.625Z,63.51
2022-11-02T21:09:09.099Z,63.64
2022-11-02T21:11:57.414Z,62.92
2022-11-02T21:14:24.112Z,62.75
2022-11-02T21:16:50.816Z,62.21
2022-11-02T21:19:17.552Z,62.15
2022-11-02T21:21:44.256Z,62.08
2022-11-02T21:24:11.000Z,61.54
2022-11-02T21:26:37.672Z,61.37
2022-11-02T21:29:04.376Z,61.08
2022-11-02T21:31:31.030Z,60.67
2022-11-02T21:33:57.811Z,60.14
2022-11-02T21:36:25.624Z,62.38
2022-11-02T21:38:52.302Z,62.33
2022-11-02T21:41:20.364Z,62.58
2022-11-02T21:43:47.143Z,62.46
2022-11-02T21:46:13.882Z,62.82
2022-11-02T21:48:40.691Z,63.09
2022-11-02T21:51:08.743Z,63.18
2022-11-02T21:53:36.735Z,63.47
2022-11-02T21:56:05.246Z,63.00
2022-11-02T21:58:32.020Z,62.78
2022-11-02T22:01:18.556Z,62.92
2022-11-02T22:03:46.439Z,62.63
2022-11-02T22:06:13.172Z,62.86
2022-11-02T22:08:39.921Z,62.72
2022-11-02T22:11:11.444Z,62.51
2022-11-02T22:13:39.137Z,62.49
2022-11-02T22:16:20.441Z,62.75
2022-11-02T22:18:48.301Z,63.00
2022-11-02T22:21:16.094Z,63.45
2022-11-02T22:23:43.942Z,64.04
2022-11-02T22:26:11.718Z,64.07
2022-11-02T22:28:39.715Z,64.18
2022-11-02T22:31:07.824Z,65.37
2022-11-02T22:33:35.268Z,65.57
2022-11-02T22:36:08.253Z,65.54
2022-11-02T22:38:53.580Z,65.09
2022-11-02T22:41:26.258Z,65.54
2022-11-02T22:43:57.427Z,65.58
2022-11-02T22:46:25.153Z,65.72
2022-11-02T22:48:52.664Z,65.56
2022-11-02T22:51:21.146Z,65.54
2022-11-02T22:53:48.781Z,64.84
2022-11-02T22:56:16.492Z,64.42
2022-11-02T22:58:44.291Z,64.98
2022-11-02T23:01:12.624Z,64.06
2022-11-02T23:03:39.644Z,63.96
2022-11-02T23:06:07.109Z,63.58
2022-11-02T23:08:41.050Z,63.45
2022-11-02T23:11:23.834Z,63.81
2022-11-02T23:13:58.083Z,65.26
2022-11-02T23:16:26.336Z,64.84
2022-11-02T23:19:13.081Z,64.60
2022-11-02T23:21:41.171Z,65.28
2022-11-02T23:24:27.008Z,65.06
2022-11-02T23:26:53.951Z,65.00
2022-11-02T23:29:39.282Z,65.48
2022-11-02T23:32:24.920Z,64.75
2022-11-02T23:35:10.051Z,65.08
2022-11-02T23:37:36.831Z,64.59
2022-11-02T23:40:03.742Z,64.56
2022-11-02T23:42:30.547Z,64.50
2022-11-02T23:44:57.210Z,64.29
2022-11-02T23:47:42.610Z,64.30
2022-11-02T23:50:09.413Z,64.31
2022-11-02T23:52:54.591Z,65.06
2022-11-02T23:55:39.781Z,65.94
2022-11-02T23:58:06.537Z,68.85
